createdAt,value
2018-11-06T00:00:33.356Z,16.57
2018-11-06T00:03:12.471Z,17.93
2018-11-06T00:05:45.981Z,17.00
2018-11-06T00:08:19.841Z,19.30
2018-11-06T00:10:53.433Z,19.07
2018-11-06T00:13:26.872Z,23.97
2018-11-06T00:16:01.089Z,16.53
2018-11-06T00:21:48.337Z,17.63
2018-11-06T00:24:21.906Z,17.50
2018-11-06T00:26:55.592Z,19.90
2018-11-06T00:29:29.153Z,22.20
2018-11-06T00:32:02.749Z,15.03
2018-11-06T00:34:36.326Z,19.90
2018-11-06T00:37:09.851Z,17.80
2018-11-06T00:39:43.278Z,19.80
2018-11-06T00:42:16.890Z,19.40
2018-11-06T00:44:50.503Z,17.57
2018-11-06T00:47:24.039Z,18.03
2018-11-06T00:49:57.559Z,24.10
2018-11-06T00:52:31.147Z,24.27
2018-11-06T00:55:05.981Z,24.03
2018-11-06T00:57:41.320Z,30.33
2018-11-06T01:00:15.948Z,31.20
2018-11-06T01:02:49.393Z,25.10
2018-11-06T01:05:22.899Z,28.43
2018-11-06T01:07:56.360Z,29.93
2018-11-06T01:10:29.947Z,31.53
2018-11-06T01:13:03.905Z,32.53
2018-11-06T01:15:37.376Z,36.87
2018-11-06T01:18:10.846Z,34.07
2018-11-06T01:20:44.316Z,34.43
2018-11-06T01:23:17.892Z,28.97
2018-11-06T01:25:51.428Z,23.53
2018-11-06T01:28:25.103Z,32.37
2018-11-06T01:30:58.613Z,29.80
2018-11-06T01:33:32.166Z,39.20
2018-11-06T01:36:05.796Z,28.30
2018-11-06T01:38:39.222Z,28.33
2018-11-06T01:41:12.666Z,28.70
2018-11-06T01:43:46.217Z,25.07
2018-11-06T01:46:19.800Z,23.70
2018-11-06T01:48:53.376Z,27.80
2018-11-06T01:51:26.959Z,23.47
2018-11-06T01:54:00.736Z,30.63
2018-11-06T01:56:34.157Z,21.07
2018-11-06T01:59:07.624Z,24.27
2018-11-06T02:01:41.204Z,19.70
2018-11-06T02:04:14.776Z,21.30
2018-11-06T02:06:48.341Z,19.70
2018-11-06T02:09:21.816Z,21.00
2018-11-06T02:11:55.321Z,17.53
2018-11-06T02:14:28.980Z,16.23
2018-11-06T02:17:02.507Z,14.47
2018-11-06T02:19:36.062Z,18.23
2018-11-06T02:22:09.854Z,19.00
2018-11-06T02:24:43.162Z,17.40
2018-11-06T02:27:16.573Z,19.30
2018-11-06T02:29:50.113Z,14.80
2018-11-06T02:32:23.445Z,18.43
2018-11-06T02:34:56.945Z,16.90
2018-11-06T02:37:30.396Z,18.63
2018-11-06T02:40:04.137Z,17.90
2018-11-06T02:42:37.555Z,17.63
2018-11-06T02:45:12.048Z,17.67
2018-11-06T02:47:45.525Z,17.30
2018-11-06T02:50:19.061Z,15.90
2018-11-06T02:52:52.640Z,17.13
2018-11-06T02:55:25.923Z,18.63
2018-11-06T02:57:59.414Z,17.30
2018-11-06T03:00:32.793Z,15.30
2018-11-06T03:03:06.206Z,17.23
2018-11-06T03:05:39.786Z,21.00
2018-11-06T03:08:13.195Z,14.80
2018-11-06T03:10:46.560Z,17.73
2018-11-06T03:13:20.236Z,18.57
2018-11-06T03:15:53.765Z,13.70
2018-11-06T03:18:27.241Z,16.63
2018-11-06T03:21:00.877Z,14.27
2018-11-06T03:23:34.437Z,15.43
2018-11-06T03:26:08.047Z,10.93
2018-11-06T03:28:41.637Z,13.50
2018-11-06T03:31:15.010Z,12.23
2018-11-06T03:33:48.640Z,9.73
2018-11-06T03:36:22.253Z,9.27
2018-11-06T03:38:55.827Z,14.43
2018-11-06T03:41:29.383Z,11.43
2018-11-06T03:44:02.875Z,11.07
2018-11-06T03:46:36.364Z,9.87
2018-11-06T03:49:10.715Z,9.87
2018-11-06T03:51:44.290Z,9.93
2018-11-06T03:54:17.738Z,12.10
2018-11-06T03:56:51.229Z,12.00
2018-11-06T03:59:24.721Z,12.03
2018-11-06T04:01:58.339Z,10.83
2018-11-06T04:04:31.928Z,11.37
2018-11-06T04:07:05.650Z,13.50
2018-11-06T04:09:39.221Z,9.47
2018-11-06T04:12:12.841Z,10.00
2018-11-06T04:14:46.420Z,8.97
2018-11-06T04:17:19.782Z,11.00
2018-11-06T04:19:53.417Z,10.80
2018-11-06T04:22:27.080Z,13.30
2018-11-06T04:25:00.671Z,9.77
2018-11-06T04:27:34.339Z,8.47
2018-11-06T04:30:09.314Z,7.90
2018-11-06T04:32:43.392Z,11.10
2018-11-06T04:35:17.017Z,9.80
2018-11-06T04:37:50.582Z,10.70
2018-11-06T04:40:24.136Z,10.20
2018-11-06T04:42:57.706Z,11.60
2018-11-06T04:45:31.329Z,17.30
2018-11-06T04:48:05.370Z,19.13
2018-11-06T04:50:38.746Z,13.23
2018-11-06T04:53:12.117Z,10.63
2018-11-06T04:55:45.634Z,11.87
2018-11-06T04:58:19.032Z,11.33
2018-11-06T05:00:52.590Z,9.33
2018-11-06T05:03:26.178Z,9.93
2018-11-06T05:05:59.569Z,9.57
2018-11-06T05:08:33.274Z,13.83
2018-11-06T05:11:06.911Z,13.50
2018-11-06T05:13:41.301Z,14.37
2018-11-06T05:16:14.853Z,16.93
2018-11-06T05:18:48.247Z,13.30
2018-11-06T05:21:21.520Z,14.13
2018-11-06T05:23:55.153Z,16.53
2018-11-06T05:26:28.712Z,10.90
2018-11-06T05:29:02.112Z,11.83
2018-11-06T05:31:35.572Z,13.30
2018-11-06T05:34:09.221Z,14.20
2018-11-06T05:36:42.536Z,11.20
2018-11-06T05:39:16.007Z,11.33
2018-11-06T05:41:49.497Z,17.13
2018-11-06T05:44:23.085Z,25.40
2018-11-06T05:46:56.448Z,15.83
2018-11-06T05:49:29.934Z,20.20
2018-11-06T05:52:03.498Z,18.60
2018-11-06T05:54:37.145Z,20.60
2018-11-06T05:57:10.511Z,19.00
2018-11-06T05:59:44.342Z,22.53
2018-11-06T06:02:17.619Z,16.73
2018-11-06T06:04:51.024Z,17.00
2018-11-06T06:07:24.885Z,21.13
2018-11-06T06:09:58.400Z,19.03
2018-11-06T06:12:32.020Z,19.53
2018-11-06T06:15:06.520Z,20.10
2018-11-06T06:17:40.082Z,14.97
2018-11-06T06:20:13.513Z,17.80
2018-11-06T06:22:47.062Z,17.07
2018-11-06T06:25:20.733Z,19.77
2018-11-06T06:27:54.314Z,26.17
2018-11-06T06:30:27.684Z,17.87
2018-11-06T06:33:01.255Z,19.00
2018-11-06T06:35:34.805Z,19.33
2018-11-06T06:38:08.131Z,19.27
2018-11-06T06:40:41.609Z,21.13
2018-11-06T06:43:14.993Z,20.10
2018-11-06T06:45:48.468Z,20.77
2018-11-06T06:48:21.842Z,19.90
2018-11-06T06:50:55.433Z,18.97
2018-11-06T06:53:28.933Z,17.13
2018-11-06T06:56:02.379Z,17.00
2018-11-06T06:58:37.435Z,21.87
2018-11-06T07:01:10.755Z,20.03
2018-11-06T07:03:44.173Z,26.20
2018-11-06T07:06:17.595Z,20.83
2018-11-06T07:08:51.099Z,23.27
2018-11-06T07:11:24.557Z,25.40
2018-11-06T07:13:58.110Z,19.40
2018-11-06T07:16:31.623Z,28.73
2018-11-06T07:19:05.249Z,25.50
2018-11-06T07:21:38.804Z,20.10
2018-11-06T07:24:12.369Z,26.47
2018-11-06T07:26:45.997Z,18.60
2018-11-06T07:29:19.545Z,22.33
2018-11-06T07:31:53.032Z,25.37
2018-11-06T07:34:26.580Z,21.40
2018-11-06T07:37:00.106Z,23.13
2018-11-06T07:39:33.519Z,20.63
2018-11-06T07:42:07.116Z,24.43
2018-11-06T07:44:41.427Z,17.30
2018-11-06T07:47:14.984Z,26.90
2018-11-06T07:49:49.527Z,21.17
2018-11-06T07:52:23.208Z,18.80
2018-11-06T07:54:56.789Z,19.90
2018-11-06T07:57:30.403Z,19.97
2018-11-06T08:00:06.570Z,18.77
2018-11-06T08:02:40.051Z,24.10
2018-11-06T08:05:14.036Z,26.13
2018-11-06T08:07:48.422Z,21.13
2018-11-06T08:10:22.444Z,24.57
2018-11-06T08:12:55.933Z,28.07
2018-11-06T08:15:29.495Z,21.60
2018-11-06T08:18:03.199Z,24.00
2018-11-06T08:20:36.840Z,20.00
2018-11-06T08:23:10.195Z,30.13
2018-11-06T08:25:43.806Z,20.07
2018-11-06T08:28:17.295Z,26.23
2018-11-06T08:30:50.871Z,25.07
2018-11-06T08:33:24.337Z,24.10
2018-11-06T08:35:58.022Z,34.17
2018-11-06T08:38:31.447Z,23.80
2018-11-06T08:41:05.017Z,26.13
2018-11-06T08:43:38.418Z,21.57
2018-11-06T08:46:12.058Z,23.10
2018-11-06T08:48:45.535Z,24.17
2018-11-06T08:51:18.953Z,26.17
2018-11-06T08:53:52.419Z,32.07
2018-11-06T08:56:26.033Z,26.90
2018-11-06T08:58:59.656Z,21.90
2018-11-06T09:01:33.272Z,21.37
2018-11-06T09:04:06.741Z,26.67
2018-11-06T09:06:40.184Z,24.43
2018-11-06T09:09:13.581Z,27.30
2018-11-06T09:11:46.928Z,29.63
2018-11-06T09:14:20.366Z,25.00
2018-11-06T09:16:53.959Z,21.70
2018-11-06T09:19:27.676Z,31.67
2018-11-06T09:22:01.070Z,25.77
2018-11-06T09:24:34.571Z,26.20
2018-11-06T09:27:08.132Z,26.73
2018-11-06T09:29:41.617Z,28.60
2018-11-06T09:32:14.967Z,27.70
2018-11-06T09:34:48.357Z,21.57
2018-11-06T09:37:21.819Z,25.87
2018-11-06T09:39:55.399Z,23.60
2018-11-06T09:42:28.944Z,34.33
2018-11-06T09:45:02.771Z,26.07
2018-11-06T09:47:36.281Z,22.20
2018-11-06T09:50:12.128Z,23.20
2018-11-06T09:52:46.258Z,25.03
2018-11-06T09:55:19.828Z,21.87
2018-11-06T09:57:53.380Z,23.47
2018-11-06T10:00:27.000Z,24.80
2018-11-06T10:03:00.329Z,23.50
2018-11-06T10:05:33.762Z,24.03
2018-11-06T10:08:07.214Z,21.67
2018-11-06T10:10:40.595Z,23.63
2018-11-06T10:13:14.142Z,25.20
2018-11-06T10:15:47.665Z,23.80
2018-11-06T10:18:21.192Z,24.00
2018-11-06T10:20:54.784Z,45.80
2018-11-06T10:23:28.284Z,25.57
2018-11-06T10:26:01.925Z,27.27
2018-11-06T10:28:35.500Z,30.03
2018-11-06T10:31:09.087Z,22.77
2018-11-06T10:33:42.668Z,19.67
2018-11-06T10:36:16.221Z,22.90
2018-11-06T10:38:49.821Z,20.53
2018-11-06T10:41:23.326Z,26.37
2018-11-06T10:43:57.003Z,22.10
2018-11-06T10:46:30.556Z,20.83
2018-11-06T10:49:04.414Z,21.03
2018-11-06T10:51:37.953Z,29.57
2018-11-06T10:54:11.325Z,18.77
2018-11-06T10:56:44.809Z,21.60
2018-11-06T10:59:18.427Z,19.50
2018-11-06T11:01:57.572Z,23.27
2018-11-06T11:04:31.558Z,21.40
2018-11-06T11:07:05.365Z,21.83
2018-11-06T11:09:38.994Z,20.67
2018-11-06T11:12:12.414Z,21.20
2018-11-06T11:14:46.014Z,22.77
2018-11-06T11:17:19.358Z,16.47
2018-11-06T11:19:52.726Z,17.97
2018-11-06T11:22:26.285Z,19.40
2018-11-06T11:24:59.630Z,18.40
2018-11-06T11:27:33.049Z,21.17
2018-11-06T11:30:08.482Z,23.37
2018-11-06T11:32:43.503Z,16.30
2018-11-06T11:35:16.938Z,14.60
2018-11-06T11:37:50.732Z,17.73
2018-11-06T11:40:24.084Z,17.73
2018-11-06T11:42:57.524Z,21.47
2018-11-06T11:45:31.130Z,21.43
2018-11-06T11:48:04.706Z,19.37
2018-11-06T11:50:38.021Z,16.60
2018-11-06T11:53:11.405Z,16.33
2018-11-06T11:55:44.924Z,20.17
2018-11-06T11:58:18.336Z,15.63
2018-11-06T12:00:51.813Z,14.17
2018-11-06T12:03:25.289Z,18.30
2018-11-06T12:05:58.788Z,18.30
2018-11-06T12:08:32.188Z,13.83
2018-11-06T12:11:05.634Z,16.53
2018-11-06T12:13:39.189Z,19.13
2018-11-06T12:16:12.705Z,18.83
2018-11-06T12:18:46.240Z,20.10
2018-11-06T12:21:19.539Z,16.60
2018-11-06T12:23:53.096Z,14.83
2018-11-06T12:26:26.696Z,15.33
2018-11-06T12:29:00.217Z,20.10
2018-11-06T12:31:33.767Z,14.63
2018-11-06T12:34:07.243Z,16.30
2018-11-06T12:36:40.794Z,15.80
2018-11-06T12:39:14.064Z,19.00
2018-11-06T12:41:47.569Z,15.73
2018-11-06T12:44:20.849Z,14.10
2018-11-06T12:46:54.445Z,18.63
2018-11-06T12:49:27.985Z,13.83
2018-11-06T12:52:01.352Z,14.60
2018-11-06T12:54:34.781Z,14.63
2018-11-06T12:57:08.237Z,14.90
2018-11-06T12:59:41.913Z,13.50
2018-11-06T13:02:15.472Z,14.50
2018-11-06T13:04:48.908Z,13.57
2018-11-06T13:07:22.308Z,16.63
2018-11-06T13:09:55.883Z,16.33
2018-11-06T13:12:29.229Z,12.60
2018-11-06T13:15:02.586Z,12.90
2018-11-06T13:17:36.551Z,9.20
2018-11-06T13:20:12.642Z,13.23
2018-11-06T13:22:46.235Z,10.30
2018-11-06T13:25:19.856Z,11.10
2018-11-06T13:27:53.499Z,17.30
2018-11-06T13:30:27.235Z,15.43
2018-11-06T13:33:00.679Z,12.37
2018-11-06T13:35:34.364Z,16.80
2018-11-06T13:38:07.659Z,11.20
2018-11-06T13:40:41.015Z,11.87
2018-11-06T13:43:14.430Z,12.30
2018-11-06T13:45:47.958Z,9.93
2018-11-06T13:48:21.481Z,11.00
2018-11-06T13:50:54.971Z,12.00
2018-11-06T13:53:28.387Z,12.53
2018-11-06T13:56:01.922Z,11.53
2018-11-06T13:58:35.432Z,10.63
2018-11-06T14:01:08.684Z,10.30
2018-11-06T14:03:42.217Z,13.63
2018-11-06T14:06:15.664Z,9.10
2018-11-06T14:08:49.229Z,8.10
2018-11-06T14:11:22.613Z,12.03
2018-11-06T14:13:55.982Z,10.97
2018-11-06T14:16:29.344Z,9.97
2018-11-06T14:19:02.936Z,10.93
2018-11-06T14:21:36.505Z,7.07
2018-11-06T14:24:10.126Z,10.27
2018-11-06T14:26:43.769Z,9.47
2018-11-06T14:29:17.390Z,7.60
2018-11-06T14:31:50.983Z,11.50
2018-11-06T14:34:24.488Z,9.30
2018-11-06T14:36:58.074Z,8.57
2018-11-06T14:39:31.491Z,8.97
2018-11-06T14:42:05.174Z,9.17
2018-11-06T14:44:38.616Z,10.63
2018-11-06T14:47:12.154Z,7.77
2018-11-06T14:49:45.641Z,11.90
2018-11-06T14:52:18.986Z,13.23
2018-11-06T14:54:52.531Z,16.23
2018-11-06T14:57:25.952Z,6.93
2018-11-06T14:59:59.542Z,7.07
2018-11-06T15:02:32.928Z,10.13
2018-11-06T15:05:06.437Z,12.40
2018-11-06T15:07:40.028Z,15.00
2018-11-06T15:10:14.110Z,21.23
2018-11-06T15:12:47.690Z,16.73
2018-11-06T15:15:21.048Z,7.27
2018-11-06T15:17:54.656Z,10.20
2018-11-06T15:20:28.370Z,9.10
2018-11-06T15:23:01.856Z,8.20
2018-11-06T15:25:35.337Z,9.03
2018-11-06T15:28:08.856Z,8.77
2018-11-06T15:30:42.433Z,8.60
2018-11-06T15:33:15.936Z,8.37
2018-11-06T15:35:49.288Z,9.77
2018-11-06T15:38:22.753Z,12.63
2018-11-06T15:40:56.290Z,12.40
2018-11-06T15:43:29.890Z,12.20
2018-11-06T15:46:04.129Z,8.47
2018-11-06T15:48:37.628Z,14.30
2018-11-06T15:51:11.172Z,12.40
2018-11-06T15:53:44.625Z,9.40
2018-11-06T15:56:18.028Z,9.13
2018-11-06T15:58:52.107Z,10.23
2018-11-06T16:01:26.481Z,10.50
2018-11-06T16:03:59.849Z,7.17
2018-11-06T16:06:33.327Z,11.10
2018-11-06T16:09:07.037Z,13.20
2018-11-06T16:11:40.517Z,6.90
2018-11-06T16:14:13.936Z,10.20
2018-11-06T16:16:47.438Z,10.27
2018-11-06T16:19:20.952Z,8.13
2018-11-06T16:21:54.478Z,8.10
2018-11-06T16:24:27.953Z,7.70
2018-11-06T16:27:01.313Z,9.93
2018-11-06T16:29:34.795Z,8.43
2018-11-06T16:32:08.261Z,9.90
2018-11-06T16:34:41.821Z,12.37
2018-11-06T16:37:15.296Z,11.03
2018-11-06T16:39:48.815Z,8.40
2018-11-06T16:42:22.341Z,13.67
2018-11-06T16:44:56.686Z,7.20
2018-11-06T16:47:30.112Z,9.03
2018-11-06T16:50:04.328Z,9.30
2018-11-06T16:52:37.982Z,9.50
2018-11-06T16:55:11.739Z,6.93
2018-11-06T16:57:45.539Z,8.20
2018-11-06T17:00:21.633Z,9.57
2018-11-06T17:02:54.932Z,11.47
2018-11-06T17:05:28.506Z,9.60
2018-11-06T17:08:01.970Z,8.37
2018-11-06T17:10:35.416Z,8.20
2018-11-06T17:13:08.819Z,9.57
2018-11-06T17:15:42.157Z,10.93
2018-11-06T17:18:16.213Z,11.90
2018-11-06T17:20:49.661Z,11.27
2018-11-06T17:23:23.887Z,10.33
2018-11-06T17:25:57.529Z,9.93
2018-11-06T17:28:31.102Z,12.00
2018-11-06T17:31:04.750Z,8.40
2018-11-06T17:33:38.212Z,10.10
2018-11-06T17:36:11.733Z,11.80
2018-11-06T17:38:45.763Z,9.30
2018-11-06T17:41:19.445Z,8.90
2018-11-06T17:43:52.930Z,9.80
2018-11-06T17:46:26.337Z,13.87
2018-11-06T17:48:59.745Z,12.07
2018-11-06T17:51:33.176Z,11.00
2018-11-06T17:54:06.736Z,14.83
2018-11-06T17:56:40.253Z,13.10
2018-11-06T17:59:14.128Z,12.77
2018-11-06T18:01:47.619Z,12.70
2018-11-06T18:04:21.374Z,11.40
2018-11-06T18:06:54.744Z,11.40
2018-11-06T18:09:28.390Z,10.67
2018-11-06T18:12:02.073Z,17.40
2018-11-06T18:14:35.622Z,14.13
2018-11-06T18:17:09.166Z,16.30
2018-11-06T18:19:42.464Z,10.77
2018-11-06T18:22:15.896Z,9.27
2018-11-06T18:24:49.334Z,10.13
2018-11-06T18:27:22.875Z,8.70
2018-11-06T18:29:56.286Z,9.70
2018-11-06T18:32:29.861Z,12.63
2018-11-06T18:35:03.822Z,9.03
2018-11-06T18:37:37.424Z,10.10
2018-11-06T18:40:14.915Z,9.40
2018-11-06T18:42:49.312Z,8.13
2018-11-06T18:45:22.861Z,9.70
2018-11-06T18:47:56.426Z,8.53
2018-11-06T18:50:29.749Z,15.43
2018-11-06T18:53:03.364Z,11.73
2018-11-06T18:55:36.941Z,12.00
2018-11-06T18:58:10.569Z,13.83
2018-11-06T19:00:44.142Z,26.47
2018-11-06T19:03:17.701Z,31.20
2018-11-06T19:05:51.274Z,41.80
2018-11-06T19:08:24.997Z,27.17
2018-11-06T19:10:58.560Z,27.03
2018-11-06T19:13:31.967Z,15.00
2018-11-06T19:16:05.885Z,12.07
2018-11-06T19:18:39.431Z,15.83
2018-11-06T19:21:12.921Z,11.50
2018-11-06T19:23:46.432Z,12.60
2018-11-06T19:26:19.877Z,15.70
2018-11-06T19:28:53.456Z,18.60
2018-11-06T19:31:26.889Z,12.87
2018-11-06T19:34:00.241Z,13.07
2018-11-06T19:36:33.622Z,13.73
2018-11-06T19:39:08.937Z,11.33
2018-11-06T19:41:42.387Z,12.45
2018-11-06T19:44:15.978Z,13.50
2018-11-06T19:46:49.501Z,12.30
2018-11-06T19:49:22.959Z,12.00
2018-11-06T19:51:56.405Z,12.10
2018-11-06T19:54:29.948Z,13.67
2018-11-06T19:57:03.396Z,16.30
2018-11-06T19:59:36.966Z,15.63
2018-11-06T20:02:10.450Z,18.20
2018-11-06T20:04:37.743Z,21.53
2018-11-06T20:07:05.001Z,18.00
2018-11-06T20:09:32.293Z,18.00
2018-11-06T20:12:05.625Z,27.07
2018-11-06T20:14:39.032Z,28.60
2018-11-06T20:17:12.416Z,23.57
2018-11-06T20:19:45.808Z,22.80
2018-11-06T20:22:19.193Z,25.93
2018-11-06T20:24:52.754Z,25.57
2018-11-06T20:27:26.250Z,21.57
2018-11-06T20:29:59.849Z,23.10
2018-11-06T20:32:33.234Z,38.50
2018-11-06T20:35:07.688Z,26.13
2018-11-06T20:37:41.256Z,28.20
2018-11-06T20:40:17.996Z,31.43
2018-11-06T20:42:51.476Z,29.40
2018-11-06T20:45:24.771Z,32.43
2018-11-06T20:47:58.124Z,26.97
2018-11-06T20:50:31.614Z,28.23
2018-11-06T20:53:05.128Z,27.17
2018-11-06T20:55:38.408Z,28.87
2018-11-06T20:58:14.126Z,31.40
2018-11-06T21:00:47.496Z,31.60
2018-11-06T21:06:07.555Z,36.77
2018-11-06T21:08:40.885Z,26.80
2018-11-06T21:11:14.554Z,40.70
2018-11-06T21:13:48.169Z,57.73
2018-11-06T21:16:21.792Z,33.17
2018-11-06T21:18:55.240Z,32.20
2018-11-06T21:21:28.821Z,31.07
2018-11-06T21:24:02.245Z,32.10
2018-11-06T21:26:36.780Z,34.97
2018-11-06T21:29:10.187Z,34.53
2018-11-06T21:31:43.760Z,34.47
2018-11-06T21:34:17.278Z,32.33
2018-11-06T21:36:50.638Z,34.33
2018-11-06T21:39:24.069Z,31.60
2018-11-06T21:41:57.831Z,36.37
2018-11-06T21:44:31.220Z,28.47
2018-11-06T21:47:04.681Z,31.23
2018-11-06T21:49:38.098Z,31.23
2018-11-06T21:52:11.612Z,30.40
2018-11-06T21:54:45.180Z,35.03
2018-11-06T21:57:18.519Z,38.60
2018-11-06T21:59:51.845Z,32.03
2018-11-06T22:02:25.189Z,33.47
2018-11-06T22:04:58.650Z,29.47
2018-11-06T22:07:32.181Z,30.50
2018-11-06T22:10:06.797Z,31.80
2018-11-06T22:12:40.990Z,28.20
2018-11-06T22:15:15.522Z,29.53
2018-11-06T22:17:48.952Z,21.00
2018-11-06T22:20:22.971Z,23.20
2018-11-06T22:22:57.228Z,24.53
2018-11-06T22:25:30.545Z,19.90
2018-11-06T22:28:04.400Z,21.30
2018-11-06T22:30:37.840Z,24.80
2018-11-06T22:33:11.255Z,23.03
2018-11-06T22:35:44.744Z,25.70
2018-11-06T22:38:18.092Z,20.27
2018-11-06T22:40:51.553Z,22.37
2018-11-06T22:43:24.979Z,38.43
2018-11-06T22:45:58.376Z,25.20
2018-11-06T22:48:31.787Z,23.77
2018-11-06T22:51:05.621Z,28.33
2018-11-06T22:53:39.066Z,35.30
2018-11-06T22:56:12.578Z,36.67
2018-11-06T22:58:46.124Z,30.17
2018-11-06T23:01:24.240Z,33.70
2018-11-06T23:03:57.581Z,34.30
2018-11-06T23:06:31.140Z,34.07
2018-11-06T23:09:07.091Z,30.80
2018-11-06T23:11:40.448Z,33.33
2018-11-06T23:14:13.853Z,36.13
2018-11-06T23:16:47.294Z,32.57
2018-11-06T23:19:20.709Z,35.20
2018-11-06T23:21:54.190Z,28.77
2018-11-06T23:24:27.705Z,39.23
2018-11-06T23:27:01.136Z,31.80
2018-11-06T23:29:34.567Z,39.13
2018-11-06T23:32:07.899Z,35.67
2018-11-06T23:34:41.313Z,35.80
2018-11-06T23:37:14.677Z,30.00
2018-11-06T23:39:48.063Z,34.20
2018-11-06T23:42:21.545Z,30.37
2018-11-06T23:44:55.030Z,33.37
2018-11-06T23:47:28.616Z,34.17
2018-11-06T23:50:02.397Z,43.60
2018-11-06T23:52:35.683Z,29.83
2018-11-06T23:55:09.484Z,31.90
2018-11-06T23:57:43.028Z,33.57
